Time;durP1;ratioP1;P1;durP2;ratioP2;P2;SDS_P1;SDS_P2;PMS_P1;PMS_P2;Temp;Humidity;BMP_temperature;BMP_pressure;BME280_temperature;BME280_humidity;BME280_pressure;Samples;Min_cycle;Max_cycle;Signal;HPM_P1;HPM_P2
2023/06/24 00:01:26;;;;;;;11.95;8.60;;;17.50;99.90;;;;;;5053602;28;20513;-69
2023/06/24 00:03:53;;;;;;;10.98;8.55;;;17.50;99.90;;;;;;5053238;28;20045;-70
2023/06/24 00:06:25;;;;;;;10.93;8.88;;;17.50;99.90;;;;;;5053378;28;20057;-69
2023/06/24 00:08:56;;;;;;;11.20;9.43;;;17.50;99.90;;;;;;5053110;28;20059;-69
2023/06/24 00:11:22;;;;;;;12.73;9.65;;;17.50;99.90;;;;;;5052856;28;20512;-70
2023/06/24 00:13:48;;;;;;;9.90;8.75;;;17.40;99.90;;;;;;5052036;28;20081;-69
2023/06/24 00:16:13;;;;;;;10.13;8.45;;;17.30;99.90;;;;;;5035198;28;20388;-70
2023/06/24 00:18:41;;;;;;;11.90;7.35;;;17.30;99.90;;;;;;5053205;28;20055;-70
2023/06/24 00:21:07;;;;;;;10.68;7.47;;;17.30;99.90;;;;;;5052894;28;20081;-70
2023/06/24 00:23:35;;;;;;;10.93;8.43;;;17.30;99.90;;;;;;5053252;28;20044;-70
2023/06/24 00:26:02;;;;;;;8.45;7.55;;;17.30;99.90;;;;;;5052978;28;20131;-70
2023/06/24 00:28:27;;;;;;;9.50;7.43;;;17.20;99.90;;;;;;5052037;28;20444;-69
2023/06/24 00:30:53;;;;;;;10.43;8.15;;;17.20;99.90;;;;;;5052610;28;20131;-70
2023/06/24 00:33:20;;;;;;;9.80;7.93;;;17.20;99.90;;;;;;5051629;28;20110;-70
2023/06/24 00:35:46;;;;;;;8.32;7.03;;;17.10;99.90;;;;;;5053181;28;20139;-71
2023/06/24 00:38:12;;;;;;;7.93;7.13;;;17.10;99.90;;;;;;5052466;28;20596;-70
2023/06/24 00:40:39;;;;;;;12.02;9.20;;;17.10;99.90;;;;;;5051744;28;20131;-70
2023/06/24 00:43:05;;;;;;;12.38;8.18;;;17.00;99.90;;;;;;5051230;28;20128;-71
2023/06/24 00:45:31;;;;;;;8.57;6.95;;;17.00;99.90;;;;;;5052368;28;20123;-69
2023/06/24 00:47:58;;;;;;;9.65;7.72;;;16.90;99.90;;;;;;5052312;28;20141;-69
2023/06/24 00:50:24;;;;;;;9.52;8.10;;;16.90;99.90;;;;;;5052297;28;20045;-69
2023/06/24 00:52:49;;;;;;;9.57;8.43;;;16.80;99.90;;;;;;5051454;28;20490;-68
2023/06/24 00:55:16;;;;;;;8.98;8.05;;;16.80;99.90;;;;;;5051032;28;20473;-68
2023/06/24 00:57:50;;;;;;;9.25;7.80;;;16.70;99.90;;;;;;5052111;28;20064;-69
2023/06/24 01:00:20;;;;;;;13.20;9.20;;;16.60;99.90;;;;;;5052281;28;20520;-68
2023/06/24 01:02:50;;;;;;;9.45;7.95;;;16.60;99.90;;;;;;5051876;28;20110;-68
2023/06/24 01:05:16;;;;;;;9.95;8.02;;;16.60;99.90;;;;;;5052025;28;20041;-71
2023/06/24 01:07:42;;;;;;;10.88;7.97;;;16.50;99.90;;;;;;5052272;28;20067;-68
2023/06/24 01:10:09;;;;;;;12.27;9.65;;;16.50;99.90;;;;;;5052107;28;20097;-69
2023/06/24 01:12:38;;;;;;;10.10;8.45;;;16.50;99.90;;;;;;5051835;28;20052;-68
2023/06/24 01:15:06;;;;;;;10.30;8.18;;;16.50;99.90;;;;;;5051984;28;20457;-68
2023/06/24 01:17:39;;;;;;;11.25;8.73;;;16.50;99.90;;;;;;5052053;28;20048;-68
2023/06/24 01:20:27;;;;;;;11.77;9.68;;;16.50;99.90;;;;;;5051598;28;20520;-69
2023/06/24 01:23:02;;;;;;;9.32;8.10;;;16.50;99.90;;;;;;5052104;28;20079;-68
2023/06/24 01:25:43;;;;;;;8.77;7.22;;;16.40;99.90;;;;;;5051112;28;20057;-67
2023/06/24 01:28:40;;;;;;;10.30;9.23;;;16.40;99.90;;;;;;5052047;28;20124;-68
2023/06/24 01:31:32;;;;;;;13.02;8.70;;;16.40;99.90;;;;;;5051048;28;20056;-70
2023/06/24 01:34:00;;;;;;;12.23;9.43;;;16.30;99.90;;;;;;5051887;28;20350;-69
2023/06/24 01:36:31;;;;;;;9.85;8.52;;;16.20;99.90;;;;;;5052062;28;20056;-68
2023/06/24 01:39:04;;;;;;;10.18;8.20;;;16.20;99.90;;;;;;5052242;28;20068;-69
2023/06/24 01:41:39;;;;;;;12.90;9.27;;;16.10;99.90;;;;;;5052210;28;20090;-68
2023/06/24 01:44:06;;;;;;;11.23;8.52;;;16.10;99.90;;;;;;5051904;28;20045;-69
2023/06/24 01:46:32;;;;;;;14.55;8.75;;;16.10;99.90;;;;;;5052073;28;20049;-69
2023/06/24 01:49:04;;;;;;;10.38;7.78;;;16.00;99.90;;;;;;5051964;28;20166;-69
2023/06/24 01:51:32;;;;;;;12.45;9.85;;;16.00;99.90;;;;;;5051817;28;20056;-68
2023/06/24 01:54:04;;;;;;;10.85;8.57;;;15.90;99.90;;;;;;5051626;28;20048;-70
2023/06/24 01:56:31;;;;;;;11.73;9.40;;;16.00;99.90;;;;;;5051454;28;20052;-70
2023/06/24 01:59:01;;;;;;;12.50;10.32;;;15.90;99.90;;;;;;5051630;28;20076;-69
2023/06/24 02:01:28;;;;;;;12.30;9.10;;;15.90;99.90;;;;;;5052101;28;20049;-69
2023/06/24 02:03:56;;;;;;;10.48;7.65;;;15.80;99.90;;;;;;5051820;28;20049;-69
2023/06/24 02:06:23;;;;;;;11.57;8.40;;;15.80;99.90;;;;;;5051588;28;20090;-69
2023/06/24 02:08:50;;;;;;;11.77;9.88;;;15.80;99.90;;;;;;5051314;28;20473;-69
2023/06/24 02:11:17;;;;;;;11.27;8.73;;;15.90;99.90;;;;;;5049998;28;20044;-68
2023/06/24 02:13:44;;;;;;;9.10;7.93;;;15.80;99.90;;;;;;5051590;28;20094;-68
2023/06/24 02:16:10;;;;;;;10.70;8.98;;;15.80;99.90;;;;;;5054582;28;20142;-69
2023/06/24 02:18:42;;;;;;;9.93;7.18;;;15.80;99.90;;;;;;5054767;28;20079;-68
2023/06/24 02:21:08;;;;;;;12.10;8.07;;;15.80;99.90;;;;;;5055138;28;20041;-68
2023/06/24 02:23:36;;;;;;;9.98;8.45;;;15.80;99.90;;;;;;5054521;28;20483;-68
2023/06/24 02:26:03;;;;;;;11.98;9.35;;;15.80;99.90;;;;;;5054827;28;20067;-68
2023/06/24 02:28:30;;;;;;;12.63;8.63;;;15.80;99.90;;;;;;5054799;28;20037;-71
2023/06/24 02:30:57;;;;;;;13.63;10.38;;;15.70;99.90;;;;;;5053117;28;20399;-70
2023/06/24 02:33:23;;;;;;;11.25;8.82;;;15.60;99.90;;;;;;5054765;28;20052;-70
2023/06/24 02:35:49;;;;;;;10.43;8.18;;;15.60;99.90;;;;;;5054871;28;20439;-70
2023/06/24 02:38:15;;;;;;;12.57;10.10;;;15.50;99.90;;;;;;5054424;28;20048;-70
2023/06/24 02:40:44;;;;;;;13.55;9.98;;;15.50;99.90;;;;;;5054844;28;20049;-69
2023/06/24 02:43:10;;;;;;;10.10;9.10;;;15.50;99.90;;;;;;5036628;28;20070;-69
2023/06/24 02:45:36;;;;;;;12.07;10.00;;;15.40;99.90;;;;;;5054702;28;20056;-69
2023/06/24 02:48:03;;;;;;;13.40;10.05;;;15.40;99.90;;;;;;5052949;28;20045;-69
2023/06/24 02:50:29;;;;;;;13.60;9.60;;;15.40;99.90;;;;;;5054594;28;20133;-70
2023/06/24 02:52:55;;;;;;;11.73;9.68;;;15.40;99.90;;;;;;5054921;28;20045;-69
2023/06/24 02:55:21;;;;;;;11.57;8.68;;;15.40;99.90;;;;;;5053609;28;20051;-70
2023/06/24 02:57:47;;;;;;;10.73;9.43;;;15.40;99.90;;;;;;5053389;28;20037;-70
2023/06/24 03:00:14;;;;;;;11.52;9.02;;;15.40;99.90;;;;;;5053333;28;20094;-69
2023/06/24 03:02:42;;;;;;;12.20;9.52;;;15.40;99.90;;;;;;5055244;28;20041;-69
2023/06/24 03:05:10;;;;;;;10.75;8.13;;;15.40;99.90;;;;;;5053489;28;20045;-70
2023/06/24 03:07:38;;;;;;;10.48;9.35;;;15.40;99.90;;;;;;5054170;28;20040;-68
2023/06/24 03:10:08;;;;;;;13.18;9.55;;;15.40;99.90;;;;;;5053931;28;20552;-70
2023/06/24 03:12:33;;;;;;;13.68;9.13;;;15.40;99.90;;;;;;5054180;28;20048;-68
2023/06/24 03:15:00;;;;;;;10.32;9.35;;;15.40;99.90;;;;;;5054200;28;20052;-69
2023/06/24 03:17:26;;;;;;;16.42;12.13;;;15.40;99.90;;;;;;5052972;28;20092;-68
2023/06/24 03:19:52;;;;;;;10.05;8.38;;;15.40;99.90;;;;;;5054423;28;20421;-69
2023/06/24 03:22:18;;;;;;;8.52;7.63;;;15.40;99.90;;;;;;5053747;28;20203;-69
2023/06/24 03:24:44;;;;;;;13.90;9.85;;;15.50;99.90;;;;;;5053953;28;20045;-69
2023/06/24 03:27:09;;;;;;;11.38;10.25;;;14.70;99.90;;;;;;5052773;28;20041;-69
2023/06/24 03:29:35;;;;;;;13.35;9.43;;;15.50;99.90;;;;;;5053930;28;20045;-69
2023/06/24 03:32:01;;;;;;;13.43;9.63;;;15.50;99.90;;;;;;5054080;28;20135;-68
2023/06/24 03:34:27;;;;;;;13.00;8.77;;;15.40;99.90;;;;;;5054083;28;20378;-69
2023/06/24 03:36:56;;;;;;;12.45;8.65;;;15.50;99.90;;;;;;5054123;28;20080;-68
2023/06/24 03:39:22;;;;;;;10.20;7.78;;;15.50;99.90;;;;;;5054248;28;20077;-70
2023/06/24 03:41:48;;;;;;;12.35;8.60;;;15.50;99.90;;;;;;5052512;28;20120;-69
2023/06/24 03:44:14;;;;;;;10.32;8.80;;;15.50;99.90;;;;;;5054665;28;20087;-69
2023/06/24 03:46:39;;;;;;;11.75;8.95;;;15.60;99.90;;;;;;5054021;28;20463;-69
2023/06/24 03:49:06;;;;;;;8.73;7.30;;;15.50;99.90;;;;;;5052522;28;20469;-69
2023/06/24 03:51:32;;;;;;;8.25;7.18;;;15.60;99.90;;;;;;5035856;28;20115;-68
2023/06/24 03:53:57;;;;;;;10.60;8.07;;;15.60;99.90;;;;;;5053379;28;20087;-69
2023/06/24 03:56:23;;;;;;;8.90;7.78;;;15.60;99.90;;;;;;5053181;28;20091;-68
2023/06/24 03:58:49;;;;;;;10.98;7.32;;;15.70;99.90;;;;;;5053140;28;20051;-67
2023/06/24 04:01:14;;;;;;;9.38;7.70;;;15.70;99.90;;;;;;5053195;28;20087;-71
2023/06/24 04:03:40;;;;;;;7.78;6.78;;;15.70;99.90;;;;;;5052141;28;20044;-69
2023/06/24 04:06:06;;;;;;;7.90;6.75;;;15.70;99.90;;;;;;5053430;28;20091;-68
2023/06/24 04:08:31;;;;;;;8.57;7.35;;;15.80;99.90;;;;;;5052137;28;20510;-68
2023/06/24 04:10:59;;;;;;;9.88;8.13;;;15.70;99.90;;;;;;5051741;28;20037;-68
2023/06/24 04:13:26;;;;;;;9.82;8.52;;;15.70;99.90;;;;;;5052625;28;20060;-69
2023/06/24 04:15:51;;;;;;;12.43;9.02;;;15.70;99.90;;;;;;5052847;28;20445;-68
2023/06/24 04:18:18;;;;;;;11.68;8.32;;;15.70;99.90;;;;;;5052949;28;20045;-68
2023/06/24 04:20:44;;;;;;;10.85;8.30;;;15.60;99.90;;;;;;5052711;28;20051;-69
2023/06/24 04:23:10;;;;;;;11.95;8.70;;;15.50;99.90;;;;;;5052721;28;20044;-69
2023/06/24 04:25:36;;;;;;;10.07;8.32;;;15.50;99.90;;;;;;5051862;28;20049;-68
2023/06/24 04:28:04;;;;;;;9.82;7.35;;;15.50;99.90;;;;;;5052552;28;20049;-69
2023/06/24 04:30:30;;;;;;;12.15;8.75;;;15.50;99.90;;;;;;5052345;28;20450;-68
2023/06/24 04:32:56;;;;;;;9.25;7.47;;;15.60;99.90;;;;;;5053084;28;20056;-69
2023/06/24 04:35:22;;;;;;;9.45;7.03;;;15.70;99.90;;;;;;5053330;28;20133;-69
2023/06/24 04:37:50;;;;;;;9.10;8.18;;;15.70;99.90;;;;;;5050972;28;20453;-69
2023/06/24 04:40:18;;;;;;;8.77;7.20;;;15.90;99.90;;;;;;5052921;28;20048;-69
2023/06/24 04:42:44;;;;;;;8.25;6.65;;;15.90;99.90;;;;;;5051953;28;20060;-69
2023/06/24 04:45:10;;;;;;;7.65;6.18;;;16.00;99.90;;;;;;5052309;28;20071;-69
2023/06/24 04:47:36;;;;;;;10.30;7.78;;;16.10;99.90;;;;;;5052754;28;20536;-68
2023/06/24 04:50:02;;;;;;;8.02;6.30;;;16.10;99.90;;;;;;5052425;28;20041;-69
2023/06/24 04:52:28;;;;;;;12.60;8.60;;;16.20;99.90;;;;;;5052641;28;20064;-69
2023/06/24 04:54:53;;;;;;;9.73;8.73;;;16.30;99.90;;;;;;5051689;28;20449;-69
2023/06/24 04:57:30;;;;;;;10.85;7.40;;;16.40;99.90;;;;;;5051334;28;20049;-69
2023/06/24 04:59:57;;;;;;;11.10;7.55;;;16.50;99.90;;;;;;5052295;28;20485;-68
2023/06/24 05:02:23;;;;;;;9.27;7.82;;;16.60;99.90;;;;;;5067649;28;20055;-69
2023/06/24 05:04:49;;;;;;;12.45;8.18;;;16.70;99.90;;;;;;5052267;28;20081;-69
2023/06/24 05:07:15;;;;;;;10.50;7.82;;;16.90;99.90;;;;;;5051646;28;20057;-69
2023/06/24 05:09:42;;;;;;;11.65;8.32;;;17.00;99.90;;;;;;5052507;28;20044;-69
2023/06/24 05:12:08;;;;;;;9.90;6.80;;;17.10;99.90;;;;;;5050930;28;20176;-70
2023/06/24 05:14:35;;;;;;;10.07;8.13;;;17.20;99.90;;;;;;5052050;28;20496;-70
2023/06/24 05:17:01;;;;;;;9.65;7.60;;;17.30;99.90;;;;;;5051749;28;20513;-69
2023/06/24 05:19:26;;;;;;;10.80;7.10;;;17.40;99.90;;;;;;5052134;28;20060;-69
2023/06/24 05:21:52;;;;;;;12.35;7.85;;;17.50;99.90;;;;;;5052349;28;20044;-69
2023/06/24 05:24:18;;;;;;;8.75;7.13;;;17.60;99.90;;;;;;5052109;28;20052;-69
2023/06/24 05:26:47;;;;;;;9.68;7.47;;;17.80;99.90;;;;;;5051959;28;20040;-70
2023/06/24 05:29:12;;;;;;;15.35;9.05;;;17.90;99.90;;;;;;5050769;28;20077;-69
2023/06/24 05:31:40;;;;;;;10.65;8.18;;;18.00;99.90;;;;;;5051682;28;20092;-69
2023/06/24 05:34:05;;;;;;;8.85;7.30;;;18.10;99.90;;;;;;5051958;28;20089;-68
2023/06/24 05:36:31;;;;;;;13.25;8.77;;;18.20;99.90;;;;;;5051922;28;20064;-68
2023/06/24 05:38:57;;;;;;;11.48;8.32;;;18.30;99.90;;;;;;5052276;28;20554;-69
2023/06/24 05:41:22;;;;;;;9.77;8.32;;;18.40;99.90;;;;;;5051243;28;20099;-68
2023/06/24 05:43:48;;;;;;;13.15;8.35;;;18.40;99.90;;;;;;5034054;28;20045;-69
2023/06/24 05:46:14;;;;;;;10.60;9.30;;;18.60;99.90;;;;;;5051817;28;20132;-69
2023/06/24 05:48:40;;;;;;;11.95;8.35;;;18.70;99.90;;;;;;5052037;28;20105;-69
2023/06/24 05:51:05;;;;;;;10.63;7.90;;;18.80;99.90;;;;;;5053998;28;20044;-69
2023/06/24 05:53:31;;;;;;;10.45;7.97;;;19.00;99.90;;;;;;5055889;28;20037;-68
2023/06/24 05:55:57;;;;;;;10.70;7.95;;;19.10;99.90;;;;;;5038637;28;20059;-69
2023/06/24 05:58:22;;;;;;;10.27;8.65;;;19.20;99.90;;;;;;5055467;28;20045;-69
2023/06/24 06:00:48;;;;;;;11.02;7.90;;;19.30;99.90;;;;;;5055322;28;20091;-69
2023/06/24 06:03:14;;;;;;;12.50;8.57;;;19.40;99.90;;;;;;5055807;28;20072;-70
2023/06/24 06:05:40;;;;;;;10.30;8.15;;;19.50;99.90;;;;;;5055606;28;20068;-69
2023/06/24 06:08:05;;;;;;;8.85;7.78;;;19.70;99.90;;;;;;5055301;28;20537;-70
2023/06/24 06:10:31;;;;;;;11.05;8.68;;;19.80;99.90;;;;;;5038216;28;20052;-69
2023/06/24 06:12:57;;;;;;;9.05;7.63;;;20.00;99.90;;;;;;5053843;28;20131;-69
2023/06/24 06:15:22;;;;;;;11.82;8.15;;;20.10;99.90;;;;;;5055339;28;20102;-68
2023/06/24 06:17:48;;;;;;;9.63;7.10;;;20.30;99.90;;;;;;5056027;28;20081;-68
2023/06/24 06:20:14;;;;;;;9.55;7.63;;;20.70;99.90;;;;;;5055279;28;20040;-68
2023/06/24 06:22:39;;;;;;;8.90;6.65;;;21.70;99.90;;;;;;5055796;28;20048;-68
2023/06/24 06:25:06;;;;;;;8.90;7.18;;;22.80;99.90;;;;;;5055248;28;20389;-68
2023/06/24 06:27:32;;;;;;;7.93;6.07;;;23.70;99.90;;;;;;5055054;28;20051;-69
2023/06/24 06:29:57;;;;;;;7.90;6.05;;;24.40;99.90;;;;;;5055000;28;20040;-69
2023/06/24 06:32:23;;;;;;;6.63;5.35;;;25.20;99.90;;;;;;5055618;28;20491;-69
2023/06/24 06:34:49;;;;;;;10.27;6.25;;;25.70;99.90;;;;;;5055445;28;20049;-68
2023/06/24 06:37:15;;;;;;;6.55;5.13;;;;;;;;;;5055399;28;20526;-68
2023/06/24 06:39:40;;;;;;;8.27;6.15;;;26.40;95.90;;;;;;5053568;28;20432;-68
2023/06/24 06:42:06;;;;;;;5.88;5.05;;;26.60;98.60;;;;;;5054965;28;20049;-69
2023/06/24 06:44:32;;;;;;;10.00;5.30;;;27.00;98.10;;;;;;5054785;28;20040;-69
2023/06/24 06:46:58;;;;;;;7.53;5.90;;;27.30;97.50;;;;;;5053757;28;20071;-68
2023/06/24 06:49:23;;;;;;;6.93;5.75;;;27.80;97.00;;;;;;5053518;28;20080;-68
2023/06/24 06:51:49;;;;;;;8.63;6.43;;;28.10;96.30;;;;;;5055362;28;20041;-69
2023/06/24 06:54:15;;;;;;;8.10;6.13;;;27.90;95.40;;;;;;5055042;28;20546;-70
2023/06/24 06:56:40;;;;;;;7.03;5.78;;;27.60;95.00;;;;;;5054424;28;20049;-69
2023/06/24 06:59:06;;;;;;;7.25;6.45;;;27.00;95.50;;;;;;5054453;28;20128;-68
2023/06/24 07:01:32;;;;;;;7.43;6.10;;;26.30;95.10;;;;;;5054963;28;20084;-69
2023/06/24 07:03:57;;;;;;;7.68;6.88;;;25.70;95.50;;;;;;5054619;28;20410;-68
2023/06/24 07:06:23;;;;;;;7.88;6.43;;;25.60;96.10;;;;;;5052841;28;20045;-67
2023/06/24 07:08:49;;;;;;;9.27;6.68;;;25.60;96.30;;;;;;5054790;28;20091;-67
2023/06/24 07:11:14;;;;;;;8.70;6.25;;;25.60;96.30;;;;;;5054430;28;20072;-68
2023/06/24 07:13:40;;;;;;;9.05;7.32;;;25.50;96.00;;;;;;5053237;28;20128;-68
2023/06/24 07:16:06;;;;;;;10.60;7.03;;;25.80;96.00;;;;;;5054507;28;20057;-67
2023/06/24 07:18:31;;;;;;;9.52;7.07;;;26.10;96.00;;;;;;5053797;28;20060;-68
2023/06/24 07:21:00;;;;;;;7.63;6.82;;;26.40;95.60;;;;;;5054514;28;20040;-67
2023/06/24 07:23:25;;;;;;;11.55;7.65;;;26.60;95.50;;;;;;5053935;28;20045;-67
2023/06/24 07:25:51;;;;;;;12.18;7.30;;;26.70;95.30;;;;;;5054190;28;20082;-68
2023/06/24 07:28:17;;;;;;;9.05;7.07;;;26.70;95.40;;;;;;5053644;28;20053;-68
2023/06/24 07:30:43;;;;;;;11.60;8.60;;;26.70;95.40;;;;;;5053236;28;20060;-67
2023/06/24 07:33:09;;;;;;;8.48;6.40;;;26.70;95.50;;;;;;5054035;28;20055;-68
2023/06/24 07:35:35;;;;;;;8.25;7.35;;;26.60;95.50;;;;;;5053905;28;20044;-69
2023/06/24 07:38:00;;;;;;;11.95;7.63;;;26.60;95.50;;;;;;5053819;28;20125;-67
2023/06/24 07:40:26;;;;;;;8.88;7.50;;;26.50;95.30;;;;;;5053026;28;20045;-67
2023/06/24 07:42:53;;;;;;;10.07;7.43;;;26.30;95.30;;;;;;5052437;28;20401;-67
2023/06/24 07:45:19;;;;;;;13.60;7.85;;;26.10;95.20;;;;;;5054145;28;20071;-68
2023/06/24 07:47:45;;;;;;;7.95;7.18;;;26.00;95.20;;;;;;5052530;28;20561;-68
2023/06/24 07:50:11;;;;;;;11.50;6.80;;;26.00;95.50;;;;;;5054075;28;20386;-68
2023/06/24 07:52:37;;;;;;;13.10;8.55;;;26.00;95.50;;;;;;5053330;28;20048;-67
2023/06/24 07:55:03;;;;;;;10.70;7.25;;;26.10;95.00;;;;;;5053520;28;20045;-68
2023/06/24 07:57:30;;;;;;;11.07;7.07;;;26.30;94.90;;;;;;5053502;28;20045;-68
2023/06/24 07:59:56;;;;;;;11.52;6.97;;;26.60;95.00;;;;;;5053390;28;20049;-68
2023/06/24 08:02:23;;;;;;;10.43;7.25;;;27.00;94.80;;;;;;5053275;28;20045;-68
2023/06/24 08:04:50;;;;;;;8.30;5.15;;;27.50;94.70;;;;;;5053287;28;20127;-68
2023/06/24 08:07:15;;;;;;;9.27;5.13;;;27.80;94.10;;;;;;5051749;28;20484;-67
2023/06/24 08:09:41;;;;;;;5.85;3.92;;;27.80;92.90;;;;;;5053211;28;20047;-68
2023/06/24 08:12:07;;;;;;;7.57;4.50;;;28.00;92.80;;;;;;5051323;28;20534;-69
2023/06/24 08:14:33;;;;;;;5.40;4.53;;;27.90;92.70;;;;;;5053409;28;20081;-68
2023/06/24 08:16:58;;;;;;;4.80;3.97;;;28.10;92.40;;;;;;5053421;28;20060;-69
2023/06/24 08:19:24;;;;;;;5.15;4.18;;;28.00;91.80;;;;;;5053181;28;20072;-68
2023/06/24 08:21:50;;;;;;;4.57;3.90;;;28.00;91.40;;;;;;5052700;28;20041;-69
2023/06/24 08:24:15;;;;;;;4.22;3.58;;;28.10;91.10;;;;;;5052872;28;20049;-70
2023/06/24 08:26:41;;;;;;;5.05;3.47;;;28.00;90.40;;;;;;5052626;28;20107;-70
2023/06/24 08:29:07;;;;;;;6.47;4.07;;;28.40;91.00;;;;;;5052748;28;20052;-69
2023/06/24 08:31:33;;;;;;;4.05;3.65;;;28.70;90.70;;;;;;5052395;28;20065;-69
2023/06/24 08:34:02;;;;;;;6.05;3.70;;;29.00;90.70;;;;;;5051637;28;20499;-68
2023/06/24 08:36:29;;;;;;;4.22;3.83;;;29.20;88.50;;;;;;5051249;28;20090;-68
2023/06/24 08:38:55;;;;;;;3.78;3.35;;;29.40;90.60;;;;;;5052489;28;20106;-69
2023/06/24 08:41:22;;;;;;;6.28;4.47;;;29.30;89.90;;;;;;5051899;28;20052;-69
2023/06/24 08:43:47;;;;;;;6.75;4.13;;;29.40;90.30;;;;;;5052835;28;20107;-69
2023/06/24 08:46:15;;;;;;;5.68;3.97;;;29.40;87.30;;;;;;5051344;28;20462;-69
2023/06/24 08:48:43;;;;;;;6.10;4.15;;;29.00;89.40;;;;;;5052232;28;20041;-69
2023/06/24 08:51:13;;;;;;;5.68;4.18;;;28.90;89.80;;;;;;5052577;28;20183;-69
2023/06/24 08:53:42;;;;;;;5.90;4.10;;;29.00;90.00;;;;;;5051360;28;20053;-68
2023/06/24 08:56:07;;;;;;;6.63;4.22;;;29.00;89.70;;;;;;5052082;28;20523;-69
2023/06/24 08:58:33;;;;;;;5.50;4.00;;;29.00;89.10;;;;;;5052080;28;20051;-70
2023/06/24 09:01:00;;;;;;;5.82;4.32;;;29.20;89.20;;;;;;5052310;28;20049;-70
2023/06/24 09:03:26;;;;;;;7.00;4.80;;;29.00;88.90;;;;;;5052097;28;20048;-68
2023/06/24 09:05:51;;;;;;;6.13;4.03;;;29.10;88.40;;;;;;5052280;28;20061;-68
2023/06/24 09:08:18;;;;;;;11.43;4.38;;;29.30;89.10;;;;;;5052038;28;20056;-70
2023/06/24 09:10:43;;;;;;;5.25;4.05;;;29.60;89.10;;;;;;5052173;28;20053;-69
2023/06/24 09:13:09;;;;;;;14.48;4.40;;;29.60;89.60;;;;;;5051922;28;20041;-69
2023/06/24 09:15:36;;;;;;;5.53;4.20;;;30.10;88.80;;;;;;5051920;28;20045;-69
2023/06/24 09:18:03;;;;;;;6.40;3.95;;;30.70;88.50;;;;;;5051961;28;20051;-69
2023/06/24 09:20:31;;;;;;;6.78;3.65;;;30.90;88.40;;;;;;5051022;28;20053;-69
2023/06/24 09:23:04;;;;;;;4.82;4.38;;;30.70;87.60;;;;;;5051864;28;20045;-69
2023/06/24 09:25:31;;;;;;;6.57;4.07;;;30.90;85.40;;;;;;5055725;28;20470;-68
2023/06/24 09:28:00;;;;;;;5.40;4.30;;;30.90;87.10;;;;;;5055686;28;20057;-69
2023/06/24 09:30:26;;;;;;;5.35;3.45;;;31.30;84.70;;;;;;5055942;28;20412;-68
2023/06/24 09:32:53;;;;;;;7.50;3.97;;;31.40;83.50;;;;;;5055762;28;20484;-69
2023/06/24 09:35:21;;;;;;;8.23;4.00;;;31.90;85.30;;;;;;5055061;28;20072;-69
2023/06/24 09:37:59;;;;;;;4.35;3.42;;;32.40;84.60;;;;;;5055747;28;20044;-69
2023/06/24 09:40:25;;;;;;;7.80;4.22;;;32.50;80.00;;;;;;5055790;28;20135;-70
2023/06/24 09:42:52;;;;;;;5.53;4.78;;;32.10;84.70;;;;;;5056159;28;20080;-69
2023/06/24 09:45:26;;;;;;;6.28;4.60;;;31.70;84.70;;;;;;5055704;28;20081;-69
2023/06/24 09:47:52;;;;;;;7.80;4.80;;;31.80;83.50;;;;;;5055554;28;20489;-69
2023/06/24 09:50:19;;;;;;;5.50;4.57;;;31.90;83.70;;;;;;5055627;28;20103;-69
2023/06/24 09:52:46;;;;;;;5.35;3.65;;;32.00;82.70;;;;;;5054180;28;20080;-69
2023/06/24 09:55:16;;;;;;;6.63;3.95;;;32.20;83.60;;;;;;5054688;28;20055;-69
2023/06/24 09:57:46;;;;;;;5.07;3.65;;;32.40;83.30;;;;;;5055797;28;20079;-68
2023/06/24 10:00:15;;;;;;;7.20;4.55;;;32.50;82.90;;;;;;5055235;28;20084;-69
2023/06/24 10:02:41;;;;;;;4.55;3.55;;;;;;;;;;5055251;28;20045;-67
2023/06/24 10:05:07;;;;;;;7.82;3.92;;;32.50;82.10;;;;;;5053798;28;20048;-69
2023/06/24 10:07:36;;;;;;;4.50;3.75;;;33.00;82.40;;;;;;5054815;28;20041;-68
2023/06/24 10:10:04;;;;;;;3.70;3.22;;;33.10;80.80;;;;;;5055182;28;20052;-68
2023/06/24 10:12:31;;;;;;;8.77;3.88;;;33.30;80.00;;;;;;5054591;28;20366;-69
2023/06/24 10:14:59;;;;;;;5.28;3.20;;;33.50;81.10;;;;;;5054990;28;20053;-68
2023/06/24 10:17:24;;;;;;;4.80;4.13;;;33.70;81.40;;;;;;5054327;28;20049;-68
2023/06/24 10:19:54;;;;;;;4.25;3.38;;;33.60;80.90;;;;;;5055040;28;20052;-69
2023/06/24 10:22:23;;;;;;;5.05;3.85;;;33.10;79.40;;;;;;5054999;28;20040;-68
2023/06/24 10:24:51;;;;;;;4.97;3.42;;;32.50;77.60;;;;;;5054726;28;20124;-67
2023/06/24 10:27:23;;;;;;;4.50;4.10;;;32.10;78.50;;;;;;5055114;28;20047;-69
2023/06/24 10:29:55;;;;;;;4.45;3.90;;;32.20;74.80;;;;;;5054958;28;20037;-69
2023/06/24 10:32:23;;;;;;;3.70;3.40;;;31.80;77.30;;;;;;5053226;28;20088;-69
2023/06/24 10:34:56;;;;;;;5.25;3.47;;;31.20;78.80;;;;;;5054758;28;20064;-69
2023/06/24 10:37:26;;;;;;;4.93;3.38;;;31.00;77.50;;;;;;5054644;28;20049;-69
2023/06/24 10:39:53;;;;;;;6.32;3.80;;;31.30;79.00;;;;;;5054470;28;20525;-68
2023/06/24 10:42:25;;;;;;;4.35;3.60;;;31.80;80.00;;;;;;5054916;28;20109;-69
2023/06/24 10:44:52;;;;;;;5.03;3.70;;;32.00;79.20;;;;;;5053830;28;20053;-69
2023/06/24 10:47:18;;;;;;;6.22;3.58;;;32.70;81.10;;;;;;5054484;28;20087;-68
2023/06/24 10:49:44;;;;;;;3.92;3.22;;;;;;;;;;5053272;28;20052;-69
2023/06/24 10:52:10;;;;;;;3.92;3.28;;;;;;;;;;5054979;28;20063;-69
2023/06/24 10:54:40;;;;;;;3.63;2.90;;;33.00;77.70;;;;;;5054316;28;20057;-69
2023/06/24 10:57:07;;;;;;;2.83;2.53;;;33.30;76.90;;;;;;5053685;28;20111;-68
2023/06/24 10:59:41;;;;;;;3.95;3.17;;;33.30;77.40;;;;;;5054223;28;20091;-68
2023/06/24 11:02:14;;;;;;;4.32;3.13;;;33.60;76.50;;;;;;5053282;28;20493;-69
2023/06/24 11:04:43;;;;;;;7.20;4.03;;;33.70;75.60;;;;;;5053024;28;20498;-69
2023/06/24 11:07:09;;;;;;;4.47;3.53;;;33.10;74.30;;;;;;5054083;28;20095;-65
2023/06/24 11:09:35;;;;;;;4.28;3.13;;;32.80;76.90;;;;;;5054321;28;20045;-69
2023/06/24 11:12:05;;;;;;;3.33;3.03;;;32.80;76.20;;;;;;5053754;28;20048;-68
2023/06/24 11:14:34;;;;;;;5.30;3.05;;;32.70;75.70;;;;;;5053361;28;20057;-69
2023/06/24 11:17:03;;;;;;;3.75;3.45;;;32.90;76.00;;;;;;5053971;28;20098;-68
2023/06/24 11:19:34;;;;;;;7.68;3.90;;;33.10;74.80;;;;;;5054266;28;20060;-70
2023/06/24 11:22:03;;;;;;;10.73;4.20;;;33.00;74.70;;;;;;5052939;28;20090;-69
2023/06/24 11:24:29;;;;;;;7.40;3.15;;;33.10;74.70;;;;;;5053983;28;20045;-68
2023/06/24 11:26:55;;;;;;;10.30;3.70;;;33.20;75.60;;;;;;5053961;28;20059;-67
2023/06/24 11:29:21;;;;;;;3.63;3.28;;;;;;;;;;5053304;28;20124;-68
2023/06/24 11:31:47;;;;;;;4.50;3.25;;;;;;;;;;5053461;28;20060;-70
2023/06/24 11:34:13;;;;;;;4.28;3.17;;;;;;;;;;5053072;28;20056;-67
2023/06/24 11:36:39;;;;;;;3.88;3.15;;;;;;;;;;5053742;28;20049;-68
2023/06/24 11:39:05;;;;;;;3.33;3.03;;;;;;;;;;5052606;28;20045;-69
2023/06/24 11:41:32;;;;;;;6.03;3.30;;;;;;;;;;5035868;28;20049;-67
2023/06/24 11:43:59;;;;;;;4.03;3.42;;;32.80;74.30;;;;;;5035824;28;20041;-67
2023/06/24 11:46:33;;;;;;;3.75;3.33;;;32.90;73.70;;;;;;5052367;28;20603;-67
2023/06/24 11:49:06;;;;;;;3.95;3.38;;;32.70;73.10;;;;;;5053452;28;20041;-68
2023/06/24 11:51:32;;;;;;;3.95;3.00;;;;;;;;;;5053875;28;20048;-67
2023/06/24 11:54:05;;;;;;;4.47;3.17;;;32.70;73.10;;;;;;5036195;28;20048;-67
2023/06/24 11:56:39;;;;;;;5.65;3.35;;;32.80;71.90;;;;;;5054174;28;20060;-68
2023/06/24 11:59:05;;;;;;;3.72;3.38;;;32.70;78.90;;;;;;5053744;28;20435;-69
2023/06/24 12:01:32;;;;;;;4.30;3.22;;;32.50;73.50;;;;;;5035396;28;20114;-68
2023/06/24 12:04:01;;;;;;;5.47;3.25;;;32.40;73.80;;;;;;5053236;28;20041;-68
2023/06/24 12:06:27;;;;;;;3.80;2.78;;;;;;;;;;5053616;28;20056;-69
2023/06/24 12:08:53;;;;;;;4.10;3.28;;;;;;;;;;5053136;28;20044;-68
2023/06/24 12:11:19;;;;;;;10.95;3.83;;;32.10;74.40;;;;;;5052993;28;20435;-68
2023/06/24 12:13:45;;;;;;;4.55;3.47;;;;;;;;;;5052919;28;20044;-69
2023/06/24 12:16:11;;;;;;;4.35;3.33;;;;;;;;;;5051539;28;20045;-69
2023/06/24 12:18:37;;;;;;;4.40;3.03;;;;;;;;;;5052988;28;20048;-69
2023/06/24 12:21:04;;;;;;;5.03;3.70;;;;;;;;;;5051604;28;20444;-68
2023/06/24 12:23:29;;;;;;;5.07;3.50;;;31.00;76.50;;;;;;5053470;28;20099;-69
2023/06/24 12:25:55;;;;;;;5.18;4.03;;;31.40;85.10;;;;;;5053109;28;20473;-68
2023/06/24 12:28:20;;;;;;;4.18;3.83;;;31.10;76.90;;;;;;5053404;28;20058;-68
2023/06/24 12:30:46;;;;;;;4.00;3.40;;;32.20;86.90;;;;;;5034839;28;20483;-67
2023/06/24 12:33:12;;;;;;;4.15;3.33;;;31.70;77.50;;;;;;5053154;28;20438;-68
2023/06/24 12:35:37;;;;;;;4.22;3.38;;;31.60;77.20;;;;;;5052934;28;20049;-69
2023/06/24 12:38:03;;;;;;;4.65;3.50;;;31.40;83.90;;;;;;5052786;28;20045;-68
2023/06/24 12:40:29;;;;;;;4.95;4.07;;;31.20;76.80;;;;;;5052888;28;20045;-68
2023/06/24 12:42:55;;;;;;;3.53;3.10;;;31.20;78.00;;;;;;5052715;28;20036;-67
2023/06/24 12:45:21;;;;;;;4.32;3.75;;;31.00;87.20;;;;;;5053065;28;20044;-68
2023/06/24 12:47:46;;;;;;;4.43;3.63;;;31.10;78.50;;;;;;5052547;28;20128;-68